sensor_id;sensor_type;location;lat;lon;timestamp;pressure;altitude;pressure_sealevel;temperature;humidity
5574;BME280;2563;52.242;7.956;2024-01-30T00:01:00;101302.94;;;6.67;100.00
5574;BME280;2563;52.242;7.956;2024-01-30T00:03:25;101312.25;;;6.49;100.00
5574;BME280;2563;52.242;7.956;2024-01-30T00:05:50;101319.84;;;6.38;100.00
5574;BME280;2563;52.242;7.956;2024-01-30T00:08:16;101324.97;;;6.38;100.00
5574;BME280;2563;52.242;7.956;2024-01-30T00:10:41;101317.38;;;6.57;100.00
5574;BME280;2563;52.242;7.956;2024-01-30T00:13:07;101325.84;;;6.42;100.00
5574;BME280;2563;52.242;7.956;2024-01-30T00:15:32;101330.91;;;6.36;100.00
5574;BME280;2563;52.242;7.956;2024-01-30T00:17:58;101336.00;;;6.30;100.00
5574;BME280;2563;52.242;7.956;2024-01-30T00:20:23;101330.84;;;6.21;100.00
5574;BME280;2563;52.242;7.956;2024-01-30T00:22:49;101333.34;;;6.16;100.00
5574;BME280;2563;52.242;7.956;2024-01-30T00:25:14;101335.91;;;6.17;100.00
5574;BME280;2563;52.242;7.956;2024-01-30T00:27:39;101334.22;;;6.20;100.00
5574;BME280;2563;52.242;7.956;2024-01-30T00:30:05;101330.84;;;6.24;100.00
5574;BME280;2563;52.242;7.956;2024-01-30T00:32:31;101337.72;;;6.31;100.00
5574;BME280;2563;52.242;7.956;2024-01-30T00:35:12;101329.22;;;6.41;100.00
5574;BME280;2563;52.242;7.956;2024-01-30T00:37:38;101326.72;;;6.44;100.00
5574;BME280;2563;52.242;7.956;2024-01-30T00:40:03;101329.28;;;6.44;100.00
5574;BME280;2563;52.242;7.956;2024-01-30T00:42:31;101327.59;;;6.52;100.00
5574;BME280;2563;52.242;7.956;2024-01-30T00:44:56;101317.28;;;6.42;100.00
5574;BME280;2563;52.242;7.956;2024-01-30T00:47:21;101322.47;;;6.49;100.00
5574;BME280;2563;52.242;7.956;2024-01-30T00:49:47;101321.66;;;6.59;100.00
5574;BME280;2563;52.242;7.956;2024-01-30T00:52:12;101310.59;;;6.70;100.00
5574;BME280;2563;52.242;7.956;2024-01-30T00:54:37;101320.78;;;6.51;100.00
5574;BME280;2563;52.242;7.956;2024-01-30T00:57:03;101312.25;;;6.52;100.00
5574;BME280;2563;52.242;7.956;2024-01-30T00:59:28;101319.94;;;6.57;100.00
5574;BME280;2563;52.242;7.956;2024-01-30T01:01:54;101315.69;;;6.57;100.00
5574;BME280;2563;52.242;7.956;2024-01-30T01:04:19;101325.09;;;6.65;100.00
5574;BME280;2563;52.242;7.956;2024-01-30T01:06:46;101318.25;;;6.62;100.00
5574;BME280;2563;52.242;7.956;2024-01-30T01:09:12;101330.09;;;6.43;100.00
5574;BME280;2563;52.242;7.956;2024-01-30T01:11:37;101336.09;;;6.45;100.00
5574;BME280;2563;52.242;7.956;2024-01-30T01:14:03;101331.03;;;6.60;100.00
5574;BME280;2563;52.242;7.956;2024-01-30T01:16:29;101335.28;;;6.54;100.00
5574;BME280;2563;52.242;7.956;2024-01-30T01:18:55;101345.44;;;6.46;100.00
5574;BME280;2563;52.242;7.956;2024-01-30T01:21:20;101338.75;;;6.70;100.00
5574;BME280;2563;52.242;7.956;2024-01-30T01:23:45;101337.09;;;6.84;100.00
5574;BME280;2563;52.242;7.956;2024-01-30T01:26:11;101332.06;;;7.06;100.00
5574;BME280;2563;52.242;7.956;2024-01-30T01:28:36;101338.03;;;7.11;100.00
5574;BME280;2563;52.242;7.956;2024-01-30T01:31:01;101355.88;;;6.80;100.00
5574;BME280;2563;52.242;7.956;2024-01-30T01:33:31;101353.31;;;6.86;100.00
5574;BME280;2563;52.242;7.956;2024-01-30T01:35:58;101374.72;;;7.02;100.00
5574;BME280;2563;52.242;7.956;2024-01-30T01:38:23;101373.88;;;7.11;100.00
5574;BME280;2563;52.242;7.956;2024-01-30T01:40:48;101396.03;;;6.95;100.00
5574;BME280;2563;52.242;7.956;2024-01-30T01:43:14;101401.19;;;7.06;100.00
5574;BME280;2563;52.242;7.956;2024-01-30T01:45:39;101408.03;;;7.07;100.00
5574;BME280;2563;52.242;7.956;2024-01-30T01:48:05;101416.53;;;7.09;100.00
5574;BME280;2563;52.242;7.956;2024-01-30T01:50:31;101424.19;;;7.01;100.00
5574;BME280;2563;52.242;7.956;2024-01-30T01:52:57;101434.41;;;6.95;100.00
5574;BME280;2563;52.242;7.956;2024-01-30T01:55:24;101429.28;;;6.96;100.00
5574;BME280;2563;52.242;7.956;2024-01-30T01:57:52;101428.47;;;7.00;100.00
5574;BME280;2563;52.242;7.956;2024-01-30T02:00:18;101428.47;;;7.03;100.00
5574;BME280;2563;52.242;7.956;2024-01-30T02:02:45;101427.69;;;7.17;100.00
5574;BME280;2563;52.242;7.956;2024-01-30T02:05:10;101426.00;;;7.19;100.00
5574;BME280;2563;52.242;7.956;2024-01-30T02:07:36;101419.22;;;7.39;100.00
5574;BME280;2563;52.242;7.956;2024-01-30T02:10:02;101420.16;;;7.61;100.00
5574;BME280;2563;52.242;7.956;2024-01-30T02:12:29;101439.78;;;7.58;100.00
5574;BME280;2563;52.242;7.956;2024-01-30T02:14:54;101450.03;;;7.65;100.00
5574;BME280;2563;52.242;7.956;2024-01-30T02:17:20;101463.69;;;7.71;100.00
5574;BME280;2563;52.242;7.956;2024-01-30T02:19:46;101476.50;;;7.71;100.00
5574;BME280;2563;52.242;7.956;2024-01-30T02:22:11;101497.06;;;7.78;100.00
5574;BME280;2563;52.242;7.956;2024-01-30T02:24:37;101508.16;;;7.80;100.00
5574;BME280;2563;52.242;7.956;2024-01-30T02:27:02;101516.66;;;7.70;100.00
5574;BME280;2563;52.242;7.956;2024-01-30T02:29:27;101542.28;;;7.65;100.00
5574;BME280;2563;52.242;7.956;2024-01-30T02:31:53;101548.16;;;7.44;100.00
5574;BME280;2563;52.242;7.956;2024-01-30T02:34:19;101547.25;;;7.35;100.00
5574;BME280;2563;52.242;7.956;2024-01-30T02:36:45;101546.41;;;7.34;100.00
5574;BME280;2563;52.242;7.956;2024-01-30T02:39:10;101548.94;;;7.28;100.00
5574;BME280;2563;52.242;7.956;2024-01-30T02:41:36;101543.75;;;7.17;100.00
5574;BME280;2563;52.242;7.956;2024-01-30T02:44:04;101535.22;;;7.17;100.00
5574;BME280;2563;52.242;7.956;2024-01-30T02:46:30;101517.34;;;7.26;100.00
5574;BME280;2563;52.242;7.956;2024-01-30T02:48:55;101508.81;;;7.30;100.00
5574;BME280;2563;52.242;7.956;2024-01-30T02:51:21;101504.59;;;7.35;100.00
5574;BME280;2563;52.242;7.956;2024-01-30T02:53:46;101513.97;;;7.39;100.00
5574;BME280;2563;52.242;7.956;2024-01-30T02:56:12;101508.84;;;7.39;100.00
5574;BME280;2563;52.242;7.956;2024-01-30T02:58:39;101510.59;;;7.40;100.00
5574;BME280;2563;52.242;7.956;2024-01-30T03:01:04;101513.97;;;7.33;100.00
5574;BME280;2563;52.242;7.956;2024-01-30T03:03:30;101517.34;;;7.26;100.00
5574;BME280;2563;52.242;7.956;2024-01-30T03:05:55;101501.22;;;7.42;100.00
5574;BME280;2563;52.242;7.956;2024-01-30T03:08:20;101503.78;;;7.42;100.00
5574;BME280;2563;52.242;7.956;2024-01-30T03:10:46;101495.22;;;7.46;100.00
5574;BME280;2563;52.242;7.956;2024-01-30T03:13:11;101498.72;;;7.70;100.00
5574;BME280;2563;52.242;7.956;2024-01-30T03:15:37;101494.50;;;7.83;100.00
5574;BME280;2563;52.242;7.956;2024-01-30T03:18:02;101514.97;;;7.72;100.00
5574;BME280;2563;52.242;7.956;2024-01-30T03:20:29;101522.63;;;7.66;100.00
5574;BME280;2563;52.242;7.956;2024-01-30T03:22:55;101524.31;;;7.61;100.00
5574;BME280;2563;52.242;7.956;2024-01-30T03:25:20;101532.88;;;7.60;100.00
5574;BME280;2563;52.242;7.956;2024-01-30T03:27:46;101521.78;;;7.62;100.00
5574;BME280;2563;52.242;7.956;2024-01-30T03:30:11;101524.34;;;7.64;100.00
5574;BME280;2563;52.242;7.956;2024-01-30T03:32:37;101526.91;;;7.59;100.00
5574;BME280;2563;52.242;7.956;2024-01-30T03:35:02;101527.69;;;7.48;100.00
5574;BME280;2563;52.242;7.956;2024-01-30T03:37:27;101526.00;;;7.53;100.00
5574;BME280;2563;52.242;7.956;2024-01-30T03:39:53;101518.28;;;7.45;100.00
5574;BME280;2563;52.242;7.956;2024-01-30T03:42:18;101525.09;;;7.41;100.00
5574;BME280;2563;52.242;7.956;2024-01-30T03:44:43;101525.06;;;7.34;100.00
5574;BME280;2563;52.242;7.956;2024-01-30T03:47:09;101520.88;;;7.51;100.00
5574;BME280;2563;52.242;7.956;2024-01-30T03:49:34;101520.91;;;7.57;100.00
5574;BME280;2563;52.242;7.956;2024-01-30T03:52:00;101513.19;;;7.59;100.00
5574;BME280;2563;52.242;7.956;2024-01-30T03:54:25;101524.28;;;7.52;100.00
5574;BME280;2563;52.242;7.956;2024-01-30T03:56:50;101518.38;;;7.70;100.00
5574;BME280;2563;52.242;7.956;2024-01-30T03:59:15;101520.09;;;7.77;100.00
5574;BME280;2563;52.242;7.956;2024-01-30T04:01:42;101528.63;;;7.65;100.00
5574;BME280;2563;52.242;7.956;2024-01-30T04:04:08;101523.53;;;7.74;100.00
5574;BME280;2563;52.242;7.956;2024-01-30T04:06:33;101532.88;;;7.63;100.00
5574;BME280;2563;52.242;7.956;2024-01-30T04:08:58;101537.94;;;7.54;100.00
5574;BME280;2563;52.242;7.956;2024-01-30T04:11:24;101547.31;;;7.45;100.00
5574;BME280;2563;52.242;7.956;2024-01-30T04:13:49;101535.41;;;7.55;100.00
5574;BME280;2563;52.242;7.956;2024-01-30T04:16:22;101532.94;;;7.74;100.00
5574;BME280;2563;52.242;7.956;2024-01-30T04:18:47;101526.97;;;7.88;100.00
5574;BME280;2563;52.242;7.956;2024-01-30T04:21:13;101545.75;;;7.87;100.00
5574;BME280;2563;52.242;7.956;2024-01-30T04:23:40;101540.59;;;7.72;100.00
5574;BME280;2563;52.242;7.956;2024-01-30T04:26:05;101549.97;;;7.70;100.00
5574;BME280;2563;52.242;7.956;2024-01-30T04:28:30;101547.47;;;7.76;100.00
5574;BME280;2563;52.242;7.956;2024-01-30T04:30:56;101544.88;;;7.76;100.00
5574;BME280;2563;52.242;7.956;2024-01-30T04:33:21;101539.78;;;7.87;100.00
5574;BME280;2563;52.242;7.956;2024-01-30T04:35:46;101548.38;;;7.95;100.00
5574;BME280;2563;52.242;7.956;2024-01-30T04:38:12;101539.00;;;8.09;100.00
5574;BME280;2563;52.242;7.956;2024-01-30T04:40:37;101552.66;;;7.98;100.00
5574;BME280;2563;52.242;7.956;2024-01-30T04:43:03;101564.56;;;7.85;100.00
5574;BME280;2563;52.242;7.956;2024-01-30T04:45:28;101581.69;;;7.98;100.00
5574;BME280;2563;52.242;7.956;2024-01-30T04:47:53;101581.72;;;8.10;100.00
5574;BME280;2563;52.242;7.956;2024-01-30T04:50:19;101601.38;;;8.05;100.00
5574;BME280;2563;52.242;7.956;2024-01-30T04:52:44;101603.09;;;8.05;100.00
5574;BME280;2563;52.242;7.956;2024-01-30T04:55:09;101607.34;;;8.00;100.00
5574;BME280;2563;52.242;7.956;2024-01-30T04:57:35;101588.50;;;7.95;100.00
5574;BME280;2563;52.242;7.956;2024-01-30T05:00:00;101568.81;;;7.84;100.00
5574;BME280;2563;52.242;7.956;2024-01-30T05:02:26;101564.50;;;7.68;100.00
5574;BME280;2563;52.242;7.956;2024-01-30T05:04:52;101566.19;;;7.67;100.00
5574;BME280;2563;52.242;7.956;2024-01-30T05:07:17;101418.44;;;7.68;100.00
5574;BME280;2563;52.242;7.956;2024-01-30T05:09:43;101403.06;;;7.62;100.00
5574;BME280;2563;52.242;7.956;2024-01-30T05:12:08;101396.22;;;7.58;100.00
5574;BME280;2563;52.242;7.956;2024-01-30T05:14:34;101384.28;;;7.69;100.00
5574;BME280;2563;52.242;7.956;2024-01-30T05:16:59;101380.00;;;7.70;100.00
5574;BME280;2563;52.242;7.956;2024-01-30T05:19:24;101379.13;;;7.60;100.00
5574;BME280;2563;52.242;7.956;2024-01-30T05:21:50;101362.06;;;7.68;100.00
5574;BME280;2563;52.242;7.956;2024-01-30T05:24:15;101362.06;;;7.89;100.00
5574;BME280;2563;52.242;7.956;2024-01-30T05:26:41;101362.94;;;7.88;100.00
5574;BME280;2563;52.242;7.956;2024-01-30T05:29:06;101379.16;;;7.75;100.00
5574;BME280;2563;52.242;7.956;2024-01-30T05:31:33;101379.16;;;7.91;100.00
5574;BME280;2563;52.242;7.956;2024-01-30T05:33:59;101391.09;;;7.82;100.00
5574;BME280;2563;52.242;7.956;2024-01-30T05:36:25;101384.28;;;7.84;100.00
5574;BME280;2563;52.242;7.956;2024-01-30T05:38:50;101392.81;;;7.80;100.00
5574;BME280;2563;52.242;7.956;2024-01-30T05:41:16;101375.72;;;8.04;100.00
5574;BME280;2563;52.242;7.956;2024-01-30T05:43:41;101386.00;;;7.98;100.00
5574;BME280;2563;52.242;7.956;2024-01-30T05:46:06;101387.69;;;7.85;100.00
5574;BME280;2563;52.242;7.956;2024-01-30T05:48:32;101383.44;;;7.84;100.00
5574;BME280;2563;52.242;7.956;2024-01-30T05:50:57;101375.72;;;7.95;100.00
5574;BME280;2563;52.242;7.956;2024-01-30T05:53:22;101371.44;;;8.09;100.00
5574;BME280;2563;52.242;7.956;2024-01-30T05:55:48;101368.06;;;8.10;100.00
5574;BME280;2563;52.242;7.956;2024-01-30T05:58:13;101379.16;;;8.09;100.00
5574;BME280;2563;52.242;7.956;2024-01-30T06:00:38;101373.19;;;8.15;100.00
5574;BME280;2563;52.242;7.956;2024-01-30T06:03:04;101378.28;;;8.28;100.00
5574;BME280;2563;52.242;7.956;2024-01-30T06:05:29;101386.84;;;8.15;100.00
5574;BME280;2563;52.242;7.956;2024-01-30T06:07:55;101382.56;;;8.29;100.00
5574;BME280;2563;52.242;7.956;2024-01-30T06:10:20;101397.13;;;8.17;100.00
5574;BME280;2563;52.242;7.956;2024-01-30T06:12:45;101391.97;;;8.14;100.00
5574;BME280;2563;52.242;7.956;2024-01-30T06:15:11;101388.53;;;8.48;100.00
5574;BME280;2563;52.242;7.956;2024-01-30T06:17:37;101395.38;;;8.46;100.00
5574;BME280;2563;52.242;7.956;2024-01-30T06:20:03;101397.97;;;8.48;100.00
5574;BME280;2563;52.242;7.956;2024-01-30T06:22:29;101397.94;;;8.51;100.00
5574;BME280;2563;52.242;7.956;2024-01-30T06:24:54;101408.19;;;8.54;100.00
5574;BME280;2563;52.242;7.956;2024-01-30T06:27:20;101423.63;;;8.48;100.00
5574;BME280;2563;52.242;7.956;2024-01-30T06:29:45;101415.06;;;8.55;100.00
5574;BME280;2563;52.242;7.956;2024-01-30T06:32:11;101437.28;;;8.56;100.00
5574;BME280;2563;52.242;7.956;2024-01-30T06:34:36;101433.00;;;8.60;100.00
5574;BME280;2563;52.242;7.956;2024-01-30T06:37:03;101447.53;;;8.65;100.00
5574;BME280;2563;52.242;7.956;2024-01-30T06:39:29;101454.34;;;8.77;100.00
5574;BME280;2563;52.242;7.956;2024-01-30T06:41:54;101471.47;;;8.70;100.00
5574;BME280;2563;52.242;7.956;2024-01-30T06:44:19;101467.22;;;8.69;100.00
5574;BME280;2563;52.242;7.956;2024-01-30T06:46:45;101473.16;;;8.78;100.00
5574;BME280;2563;52.242;7.956;2024-01-30T06:49:10;101484.31;;;8.67;100.00
5574;BME280;2563;52.242;7.956;2024-01-30T06:51:35;101480.03;;;8.66;100.00
5574;BME280;2563;52.242;7.956;2024-01-30T06:54:01;101489.44;;;8.73;100.00
5574;BME280;2563;52.242;7.956;2024-01-30T06:56:26;101487.75;;;8.74;100.00
5574;BME280;2563;52.242;7.956;2024-01-30T06:58:52;101492.00;;;8.73;100.00
5574;BME280;2563;52.242;7.956;2024-01-30T07:01:17;101483.47;;;8.71;100.00
5574;BME280;2563;52.242;7.956;2024-01-30T07:03:43;101482.56;;;8.85;100.00
5574;BME280;2563;52.242;7.956;2024-01-30T07:06:09;101471.44;;;8.89;100.00
5574;BME280;2563;52.242;7.956;2024-01-30T07:08:36;101474.88;;;8.83;100.00
5574;BME280;2563;52.242;7.956;2024-01-30T07:11:02;101485.13;;;8.79;100.00
5574;BME280;2563;52.242;7.956;2024-01-30T07:13:27;101497.16;;;8.64;100.00
5574;BME280;2563;52.242;7.956;2024-01-30T07:15:54;101481.78;;;8.64;100.00
5574;BME280;2563;52.242;7.956;2024-01-30T07:18:19;101476.59;;;8.83;100.00
5574;BME280;2563;52.242;7.956;2024-01-30T07:20:44;101491.13;;;8.82;100.00
5574;BME280;2563;52.242;7.956;2024-01-30T07:23:15;101482.56;;;8.88;100.00
5574;BME280;2563;52.242;7.956;2024-01-30T07:25:42;101493.66;;;9.02;100.00
5574;BME280;2563;52.242;7.956;2024-01-30T07:28:08;101505.66;;;8.94;100.00
5574;BME280;2563;52.242;7.956;2024-01-30T07:30:37;101502.25;;;8.92;100.00
5574;BME280;2563;52.242;7.956;2024-01-30T07:33:03;101498.81;;;8.93;100.00
5574;BME280;2563;52.242;7.956;2024-01-30T07:35:28;101503.09;;;8.96;100.00
5574;BME280;2563;52.242;7.956;2024-01-30T07:37:53;101500.50;;;9.00;100.00
5574;BME280;2563;52.242;7.956;2024-01-30T07:40:19;101497.09;;;8.98;100.00
5574;BME280;2563;52.242;7.956;2024-01-30T07:42:44;101508.19;;;9.14;100.00
5574;BME280;2563;52.242;7.956;2024-01-30T07:45:10;101505.63;;;9.06;100.00
5574;BME280;2563;52.242;7.956;2024-01-30T07:47:35;101509.91;;;9.07;100.00
5574;BME280;2563;52.242;7.956;2024-01-30T07:50:01;101517.66;;;8.98;100.00
5574;BME280;2563;52.242;7.956;2024-01-30T07:52:26;101513.34;;;9.02;100.00
5574;BME280;2563;52.242;7.956;2024-01-30T07:54:52;101527.88;;;9.12;100.00
5574;BME280;2563;52.242;7.956;2024-01-30T07:57:17;101520.94;;;9.40;100.00
5574;BME280;2563;52.242;7.956;2024-01-30T07:59:44;101535.56;;;9.21;100.00
5574;BME280;2563;52.242;7.956;2024-01-30T08:02:10;101547.50;;;9.44;100.00
5574;BME280;2563;52.242;7.956;2024-01-30T08:04:35;101549.22;;;9.42;100.00
5574;BME280;2563;52.242;7.956;2024-01-30T08:07:01;101556.91;;;9.43;100.00
5574;BME280;2563;52.242;7.956;2024-01-30T08:09:26;101562.03;;;9.48;100.00
5574;BME280;2563;52.242;7.956;2024-01-30T08:11:51;101579.09;;;9.64;100.00
5574;BME280;2563;52.242;7.956;2024-01-30T08:14:18;101583.38;;;9.67;100.00
5574;BME280;2563;52.242;7.956;2024-01-30T08:16:45;101593.66;;;9.68;100.00
5574;BME280;2563;52.242;7.956;2024-01-30T08:19:10;101597.09;;;9.70;100.00
5574;BME280;2563;52.242;7.956;2024-01-30T08:21:36;101606.53;;;9.64;100.00
5574;BME280;2563;52.242;7.956;2024-01-30T08:24:03;101618.53;;;9.68;100.00
5574;BME280;2563;52.242;7.956;2024-01-30T08:26:30;101615.09;;;9.66;100.00
5574;BME280;2563;52.242;7.956;2024-01-30T08:28:55;101611.69;;;9.54;100.00
5574;BME280;2563;52.242;7.956;2024-01-30T08:31:20;101606.53;;;9.57;100.00
5574;BME280;2563;52.242;7.956;2024-01-30T08:33:46;101609.13;;;9.65;100.00
5574;BME280;2563;52.242;7.956;2024-01-30T08:36:11;101621.94;;;9.67;100.00
5574;BME280;2563;52.242;7.956;2024-01-30T08:38:36;101626.22;;;9.66;100.00
5574;BME280;2563;52.242;7.956;2024-01-30T08:41:02;101627.97;;;9.63;100.00
5574;BME280;2563;52.242;7.956;2024-01-30T08:43:28;101627.91;;;9.72;100.00
5574;BME280;2563;52.242;7.956;2024-01-30T08:45:53;101620.22;;;9.70;100.00
5574;BME280;2563;52.242;7.956;2024-01-30T08:48:18;101619.41;;;9.59;100.00
5574;BME280;2563;52.242;7.956;2024-01-30T08:50:44;101614.22;;;9.77;100.00
5574;BME280;2563;52.242;7.956;2024-01-30T08:53:09;101627.91;;;9.78;100.00
5574;BME280;2563;52.242;7.956;2024-01-30T08:55:34;101626.25;;;9.68;100.00
5574;BME280;2563;52.242;7.956;2024-01-30T08:58:00;101629.59;;;9.91;100.00
5574;BME280;2563;52.242;7.956;2024-01-30T09:00:25;101639.84;;;9.93;100.00
5574;BME280;2563;52.242;7.956;2024-01-30T09:02:50;101646.72;;;9.86;100.00
5574;BME280;2563;52.242;7.956;2024-01-30T09:05:16;101646.69;;;9.95;100.00
5574;BME280;2563;52.242;7.956;2024-01-30T09:07:41;101647.50;;;10.07;100.00
5574;BME280;2563;52.242;7.956;2024-01-30T09:10:07;101653.50;;;10.13;100.00
5574;BME280;2563;52.242;7.956;2024-01-30T09:12:32;101659.44;;;10.29;100.00
5574;BME280;2563;52.242;7.956;2024-01-30T09:14:58;101666.31;;;10.30;100.00
5574;BME280;2563;52.242;7.956;2024-01-30T09:17:23;101671.38;;;10.42;100.00
5574;BME280;2563;52.242;7.956;2024-01-30T09:19:48;101689.44;;;10.38;100.00
5574;BME280;2563;52.242;7.956;2024-01-30T09:22:14;101696.28;;;10.40;100.00
5574;BME280;2563;52.242;7.956;2024-01-30T09:24:40;101698.88;;;10.37;100.00
5574;BME280;2563;52.242;7.956;2024-01-30T09:27:05;101704.03;;;10.37;100.00
5574;BME280;2563;52.242;7.956;2024-01-30T09:29:31;101700.56;;;10.38;100.00
5574;BME280;2563;52.242;7.956;2024-01-30T09:31:59;101697.13;;;10.42;100.00
5574;BME280;2563;52.242;7.956;2024-01-30T09:34:24;101708.22;;;10.52;100.00
5574;BME280;2563;52.242;7.956;2024-01-30T09:36:50;101712.53;;;10.52;100.00
5574;BME280;2563;52.242;7.956;2024-01-30T09:39:15;101702.19;;;10.59;100.00
5574;BME280;2563;52.242;7.956;2024-01-30T09:41:59;101709.88;;;10.66;100.00
5574;BME280;2563;52.242;7.956;2024-01-30T09:44:28;101712.34;;;10.87;100.00
5574;BME280;2563;52.242;7.956;2024-01-30T09:46:54;101725.19;;;10.89;100.00
5574;BME280;2563;52.242;7.956;2024-01-30T09:49:20;101721.69;;;10.97;100.00
5574;BME280;2563;52.242;7.956;2024-01-30T09:51:49;101729.31;;;11.14;100.00
5574;BME280;2563;52.242;7.956;2024-01-30T09:54:15;101726.78;;;11.05;100.00
5574;BME280;2563;52.242;7.956;2024-01-30T09:56:41;101739.53;;;11.23;100.00
5574;BME280;2563;52.242;7.956;2024-01-30T09:59:07;101739.53;;;11.23;100.00
5574;BME280;2563;52.242;7.956;2024-01-30T10:01:34;101732.53;;;11.41;100.00
5574;BME280;2563;52.242;7.956;2024-01-30T10:03:59;101746.28;;;11.37;100.00
5574;BME280;2563;52.242;7.956;2024-01-30T10:06:25;101758.34;;;11.38;100.00
5574;BME280;2563;52.242;7.956;2024-01-30T10:08:51;101759.25;;;11.29;100.00
5574;BME280;2563;52.242;7.956;2024-01-30T10:11:17;101752.44;;;11.23;100.00
5574;BME280;2563;52.242;7.956;2024-01-30T10:13:42;101757.59;;;11.22;100.00
5574;BME280;2563;52.242;7.956;2024-01-30T10:16:07;101755.06;;;11.14;100.00
5574;BME280;2563;52.242;7.956;2024-01-30T10:18:33;101760.31;;;11.02;100.00
5574;BME280;2563;52.242;7.956;2024-01-30T10:20:59;101757.72;;;10.99;100.00
5574;BME280;2563;52.242;7.956;2024-01-30T10:23:24;101755.16;;;10.99;100.00
5574;BME280;2563;52.242;7.956;2024-01-30T10:25:51;101750.06;;;10.93;100.00
5574;BME280;2563;52.242;7.956;2024-01-30T10:28:17;101749.25;;;10.88;100.00
5574;BME280;2563;52.242;7.956;2024-01-30T10:30:43;101763.03;;;10.79;100.00
5574;BME280;2563;52.242;7.956;2024-01-30T10:33:09;101758.72;;;10.82;100.00
5574;BME280;2563;52.242;7.956;2024-01-30T10:35:34;101751.00;;;10.82;100.00
5574;BME280;2563;52.242;7.956;2024-01-30T10:38:00;101751.88;;;10.74;100.00
5574;BME280;2563;52.242;7.956;2024-01-30T10:40:28;101747.63;;;10.67;100.00
5574;BME280;2563;52.242;7.956;2024-01-30T10:42:55;101739.03;;;10.68;100.00
5574;BME280;2563;52.242;7.956;2024-01-30T10:45:22;101735.63;;;10.62;100.00
5574;BME280;2563;52.242;7.956;2024-01-30T10:47:53;101745.09;;;10.56;100.00
5574;BME280;2563;52.242;7.956;2024-01-30T10:50:20;101737.41;;;10.53;100.00
5574;BME280;2563;52.242;7.956;2024-01-30T10:52:46;101732.28;;;10.50;100.00
5574;BME280;2563;52.242;7.956;2024-01-30T10:55:13;101732.28;;;10.45;100.00
5574;BME280;2563;52.242;7.956;2024-01-30T10:57:40;101734.88;;;10.45;100.00
5574;BME280;2563;52.242;7.956;2024-01-30T11:00:11;101725.44;;;10.44;100.00
5574;BME280;2563;52.242;7.956;2024-01-30T11:02:39;101723.72;;;10.45;100.00
5574;BME280;2563;52.242;7.956;2024-01-30T11:05:05;101720.25;;;10.50;100.00
5574;BME280;2563;52.242;7.956;2024-01-30T11:07:31;101725.34;;;10.58;100.00
5574;BME280;2563;52.242;7.956;2024-01-30T11:10:01;101727.00;;;10.71;100.00
5574;BME280;2563;52.242;7.956;2024-01-30T11:12:28;101736.34;;;10.84;100.00
5574;BME280;2563;52.242;7.956;2024-01-30T11:15:10;101741.44;;;10.94;100.00
5574;BME280;2563;52.242;7.956;2024-01-30T11:17:41;101727.69;;;10.99;100.00
5574;BME280;2563;52.242;7.956;2024-01-30T11:20:16;101736.16;;;11.15;100.00
5574;BME280;2563;52.242;7.956;2024-01-30T11:22:46;101751.44;;;11.38;100.00
5574;BME280;2563;52.242;7.956;2024-01-30T11:25:16;101748.59;;;11.67;100.00
5574;BME280;2563;52.242;7.956;2024-01-30T11:27:45;101758.13;;;11.62;100.00
5574;BME280;2563;52.242;7.956;2024-01-30T11:30:21;101756.88;;;12.03;100.00
5574;BME280;2563;52.242;7.956;2024-01-30T11:33:07;101762.44;;;12.42;100.00
5574;BME280;2563;52.242;7.956;2024-01-30T11:38:03;101777.34;;;15.21;100.00
5574;BME280;2563;52.242;7.956;2024-01-30T11:40:30;101793.84;;;15.89;100.00
5574;BME280;2563;52.242;7.956;2024-01-30T11:42:58;101803.53;;;16.46;100.00
5574;BME280;2563;52.242;7.956;2024-01-30T11:45:23;101809.38;;;15.90;100.00
5574;BME280;2563;52.242;7.956;2024-01-30T11:47:49;101820.25;;;14.55;100.00
5574;BME280;2563;52.242;7.956;2024-01-30T11:50:14;101820.09;;;13.70;100.00
5574;BME280;2563;52.242;7.956;2024-01-30T11:52:40;101807.97;;;13.16;100.00
5574;BME280;2563;52.242;7.956;2024-01-30T11:55:07;101796.78;;;13.71;100.00
5574;BME280;2563;52.242;7.956;2024-01-30T11:57:33;101805.13;;;13.89;100.00
5574;BME280;2563;52.242;7.956;2024-01-30T12:00:00;101809.97;;;13.56;100.00
5574;BME280;2563;52.242;7.956;2024-01-30T12:02:26;101811.47;;;13.12;100.00
5574;BME280;2563;52.242;7.956;2024-01-30T12:04:51;101798.09;;;12.82;100.00
5574;BME280;2563;52.242;7.956;2024-01-30T12:07:16;101799.13;;;12.69;100.00
5574;BME280;2563;52.242;7.956;2024-01-30T12:09:42;101797.50;;;12.62;100.00
5574;BME280;2563;52.242;7.956;2024-01-30T12:12:07;101793.28;;;12.54;100.00
5574;BME280;2563;52.242;7.956;2024-01-30T12:14:38;101792.53;;;12.46;100.00
5574;BME280;2563;52.242;7.956;2024-01-30T12:17:04;101792.53;;;12.46;100.00
5574;BME280;2563;52.242;7.956;2024-01-30T12:19:30;101786.56;;;12.41;100.00
5574;BME280;2563;52.242;7.956;2024-01-30T12:21:58;101779.66;;;12.43;100.00
5574;BME280;2563;52.242;7.956;2024-01-30T12:24:27;101774.41;;;12.49;100.00
5574;BME280;2563;52.242;7.956;2024-01-30T12:26:57;101780.63;;;12.34;100.00
5574;BME280;2563;52.242;7.956;2024-01-30T12:29:22;101776.25;;;12.41;100.00
5574;BME280;2563;52.242;7.956;2024-01-30T12:31:48;101781.63;;;12.23;100.00
5574;BME280;2563;52.242;7.956;2024-01-30T12:34:14;101777.38;;;12.17;100.00
5574;BME280;2563;52.242;7.956;2024-01-30T12:36:42;101773.16;;;12.08;100.00
5574;BME280;2563;52.242;7.956;2024-01-30T12:39:11;101764.66;;;12.00;100.00
5574;BME280;2563;52.242;7.956;2024-01-30T12:41:36;101763.91;;;11.86;100.00
5574;BME280;2563;52.242;7.956;2024-01-30T12:44:02;101751.94;;;11.77;100.00
5574;BME280;2563;52.242;7.956;2024-01-30T12:46:28;101746.00;;;11.70;100.00
5574;BME280;2563;52.242;7.956;2024-01-30T12:48:54;101738.16;;;11.83;100.00
5574;BME280;2563;52.242;7.956;2024-01-30T12:51:19;101743.38;;;11.75;100.00
5574;BME280;2563;52.242;7.956;2024-01-30T12:53:44;101733.94;;;11.73;100.00
5574;BME280;2563;52.242;7.956;2024-01-30T12:56:11;101725.31;;;11.77;100.00
5574;BME280;2563;52.242;7.956;2024-01-30T12:58:37;101712.47;;;11.72;100.00
5574;BME280;2563;52.242;7.956;2024-01-30T13:01:02;101715.91;;;11.69;100.00
5574;BME280;2563;52.242;7.956;2024-01-30T13:03:28;101706.41;;;11.76;100.00